createdAt,value
2018-07-31T00:11:25.579Z,97979.42
2018-07-31T01:13:43.977Z,97971.84
2018-07-31T01:18:39.297Z,97967.80
2018-07-31T01:33:41.014Z,97953.15
2018-07-31T01:38:33.993Z,97948.16
2018-07-31T01:43:27.049Z,97942.57
2018-07-31T01:48:20.488Z,97941.52
2018-07-31T01:53:13.514Z,97939.95
2018-07-31T01:58:06.563Z,97946.33
2018-07-31T02:02:59.572Z,97950.13
2018-07-31T02:07:52.547Z,97949.48
2018-07-31T02:12:45.587Z,97951.72
2018-07-31T02:17:38.566Z,97959.20
2018-07-31T02:22:31.629Z,97957.78
2018-07-31T02:27:24.608Z,97955.61
2018-07-31T02:32:17.611Z,97965.63
2018-07-31T02:37:13.986Z,97972.54
2018-07-31T02:42:07.259Z,97967.97
2018-07-31T02:47:00.377Z,97972.36
2018-07-31T02:51:53.287Z,97976.88
2018-07-31T02:56:47.202Z,97973.45
2018-07-31T03:01:40.165Z,97969.48
2018-07-31T03:06:33.600Z,97963.17
2018-07-31T03:11:26.527Z,97959.13
2018-07-31T03:16:19.540Z,97969.89
2018-07-31T03:21:12.486Z,97961.92
2018-07-31T03:26:05.489Z,97969.34
2018-07-31T03:30:58.553Z,97974.67
2018-07-31T03:35:52.256Z,97970.68
2018-07-31T03:40:46.018Z,97966.22
2018-07-31T03:45:39.031Z,97970.54
2018-07-31T03:50:31.995Z,97963.78
2018-07-31T03:55:24.967Z,97963.30
2018-07-31T04:00:17.893Z,97959.34
2018-07-31T04:05:10.872Z,97967.56
2018-07-31T04:10:04.349Z,97975.86
2018-07-31T04:14:57.341Z,97973.39
2018-07-31T04:19:50.377Z,97967.73
2018-07-31T04:24:44.096Z,97969.99
2018-07-31T04:29:37.146Z,97975.64
2018-07-31T04:34:30.322Z,97973.31
2018-07-31T04:39:24.503Z,97978.12
2018-07-31T04:44:17.879Z,97977.45
2018-07-31T04:49:10.995Z,97975.73
2018-07-31T04:54:04.045Z,97967.97
2018-07-31T04:58:57.727Z,97975.77
2018-07-31T05:03:51.175Z,97974.88
2018-07-31T05:08:44.133Z,97984.06
2018-07-31T05:13:37.108Z,97979.09
2018-07-31T05:18:30.208Z,97987.86
2018-07-31T05:23:24.077Z,97972.89
2018-07-31T05:28:17.264Z,97973.09
2018-07-31T05:33:10.506Z,97987.53
2018-07-31T05:38:04.483Z,97985.09
2018-07-31T05:42:57.682Z,97989.70
2018-07-31T05:47:50.844Z,98006.48
2018-07-31T05:52:48.261Z,98011.55
2018-07-31T05:57:41.341Z,98009.47
2018-07-31T06:02:34.591Z,98018.58
2018-07-31T06:07:27.686Z,98014.45
2018-07-31T06:12:20.842Z,98007.88
2018-07-31T06:17:14.055Z,98000.73
2018-07-31T06:22:07.415Z,97996.62
2018-07-31T06:27:00.596Z,98000.29
2018-07-31T06:31:53.853Z,97995.30
2018-07-31T06:36:47.045Z,97993.80
2018-07-31T06:41:40.188Z,97998.20
2018-07-31T06:46:33.237Z,98010.25
2018-07-31T06:51:26.240Z,98008.38
2018-07-31T06:56:19.320Z,98016.64
2018-07-31T07:01:12.495Z,98018.96
2018-07-31T07:06:05.644Z,98015.66
2018-07-31T07:10:58.878Z,98026.93
2018-07-31T07:15:51.971Z,98022.51
2018-07-31T07:20:45.659Z,98025.03
2018-07-31T07:25:40.313Z,98030.41
2018-07-31T07:30:33.467Z,98028.84
2018-07-31T07:35:26.506Z,98038.20
2018-07-31T07:40:19.562Z,98040.95
2018-07-31T07:45:12.567Z,98040.95
2018-07-31T07:50:05.784Z,98044.21
2018-07-31T07:54:58.720Z,98046.98
2018-07-31T07:59:51.972Z,98055.34
2018-07-31T08:04:45.105Z,98054.34
2018-07-31T08:09:38.205Z,98060.23
2018-07-31T08:14:31.299Z,98057.86
2018-07-31T08:19:24.317Z,98054.17
2018-07-31T08:24:17.301Z,98069.17
2018-07-31T08:29:11.932Z,98069.45
2018-07-31T08:34:04.954Z,98063.45
2018-07-31T08:38:58.579Z,98055.53
2018-07-31T08:43:51.692Z,98045.59
2018-07-31T08:48:44.767Z,98041.84
2018-07-31T08:53:37.972Z,98038.82
2018-07-31T08:58:31.135Z,98029.96
2018-07-31T09:03:24.477Z,98034.61
2018-07-31T09:08:17.624Z,98029.50
2018-07-31T09:13:10.727Z,98023.83
2018-07-31T09:18:03.765Z,98022.72
2018-07-31T09:22:56.884Z,98022.31
2018-07-31T09:27:50.085Z,98018.16
2018-07-31T09:32:48.549Z,98016.38
2018-07-31T09:37:41.716Z,98016.38
2018-07-31T09:42:35.070Z,98019.30
2018-07-31T09:47:28.150Z,98016.81
2018-07-31T09:52:21.150Z,98022.59
2018-07-31T09:57:14.283Z,98011.61
2018-07-31T10:02:07.343Z,98012.35
2018-07-31T10:07:00.416Z,98008.06
2018-07-31T10:11:53.557Z,98012.61
2018-07-31T10:16:46.632Z,98018.00
2018-07-31T10:21:39.720Z,98029.08
2018-07-31T10:26:32.876Z,98025.00
2018-07-31T10:31:25.837Z,98019.05
2018-07-31T10:36:19.447Z,98016.47
2018-07-31T10:41:12.645Z,98020.45
2018-07-31T10:46:05.938Z,98020.12
2018-07-31T10:50:59.205Z,98014.13
2018-07-31T10:55:52.456Z,98010.60
2018-07-31T11:00:45.549Z,98014.27
2018-07-31T11:05:38.604Z,98019.00
2018-07-31T11:10:31.698Z,98007.25
2018-07-31T11:15:24.704Z,98006.91
2018-07-31T11:20:17.821Z,98011.66
2018-07-31T11:25:11.065Z,98002.81
2018-07-31T11:30:04.816Z,98007.56
2018-07-31T11:34:57.883Z,98005.48
2018-07-31T11:39:50.991Z,98016.35
2018-07-31T11:44:44.096Z,98020.33
2018-07-31T11:49:37.151Z,98011.06
2018-07-31T11:54:30.264Z,98005.06
2018-07-31T11:59:23.230Z,98002.90
2018-07-31T12:04:16.400Z,98000.67
2018-07-31T12:09:11.524Z,97994.77
2018-07-31T12:14:04.538Z,97994.16
2018-07-31T12:18:57.611Z,97977.78
2018-07-31T12:23:50.610Z,97971.03
2018-07-31T12:28:43.725Z,97976.38
2018-07-31T12:33:36.901Z,97973.28
2018-07-31T12:38:30.052Z,97967.91
2018-07-31T12:43:23.152Z,97959.09
2018-07-31T12:48:16.102Z,97954.03
2018-07-31T12:53:09.086Z,97946.00
2018-07-31T12:58:02.244Z,97946.78
2018-07-31T13:02:55.298Z,97954.88
2018-07-31T13:07:48.371Z,97966.02
2018-07-31T13:12:41.442Z,97962.09
2018-07-31T13:17:34.540Z,97982.13
2018-07-31T13:22:27.738Z,98012.16
2018-07-31T13:27:20.822Z,98024.91
2018-07-31T13:32:14.366Z,98023.12
2018-07-31T13:37:08.810Z,98024.70
2018-07-31T13:42:01.951Z,98030.69
2018-07-31T13:46:55.039Z,98016.37
2018-07-31T13:51:48.120Z,98006.17
2018-07-31T13:56:41.187Z,98000.17
2018-07-31T14:01:34.280Z,97995.42
2018-07-31T14:06:27.509Z,97979.52
2018-07-31T14:11:20.587Z,97979.73
2018-07-31T14:16:13.793Z,97983.29
2018-07-31T14:21:06.832Z,97985.27
2018-07-31T14:25:59.989Z,97983.56
2018-07-31T14:30:53.191Z,97985.17
2018-07-31T14:35:46.411Z,97986.69
2018-07-31T14:40:39.448Z,97982.51
2018-07-31T14:45:32.556Z,97982.05
2018-07-31T14:50:25.452Z,97968.53
2018-07-31T14:55:18.414Z,97962.20
2018-07-31T15:00:11.450Z,97960.75
2018-07-31T15:05:04.855Z,97950.75
2018-07-31T15:09:58.054Z,97950.98
2018-07-31T15:14:51.144Z,97957.61
2018-07-31T15:19:44.175Z,97959.33
2018-07-31T15:24:37.305Z,97965.23
2018-07-31T15:29:30.364Z,97971.66
2018-07-31T15:34:23.588Z,97976.64
2018-07-31T15:39:16.690Z,97975.88
2018-07-31T15:44:10.024Z,97983.80
2018-07-31T15:49:03.237Z,97978.61
2018-07-31T15:53:56.457Z,97982.50
2018-07-31T15:58:49.707Z,97980.33
2018-07-31T16:03:42.708Z,97984.29
2018-07-31T16:08:35.948Z,98001.41
2018-07-31T16:13:29.492Z,97996.34
2018-07-31T16:18:22.528Z,98014.72
2018-07-31T16:23:21.286Z,98016.77
2018-07-31T16:28:14.350Z,98026.02
2018-07-31T16:33:07.362Z,98025.41
2018-07-31T16:38:00.499Z,98037.63
2018-07-31T16:42:53.774Z,98047.02
2018-07-31T16:47:47.958Z,98051.73
2018-07-31T16:52:41.094Z,98062.15
2018-07-31T16:57:34.258Z,98061.59
2018-07-31T17:02:27.322Z,98055.24
2018-07-31T17:07:20.445Z,98059.31
2018-07-31T17:12:13.518Z,98052.36
2018-07-31T17:17:06.680Z,98056.10
2018-07-31T17:21:59.783Z,98064.52
2018-07-31T17:26:52.735Z,98065.73
2018-07-31T17:31:45.796Z,98056.91
2018-07-31T17:36:38.928Z,98058.99
2018-07-31T17:41:32.134Z,98057.52
2018-07-31T17:46:25.223Z,98067.69
2018-07-31T17:51:18.191Z,98060.78
2018-07-31T17:56:11.230Z,98070.58
2018-07-31T18:01:04.283Z,98078.81
2018-07-31T18:05:57.299Z,98096.03
2018-07-31T18:10:50.870Z,98091.23
2018-07-31T18:15:44.388Z,98107.61
2018-07-31T18:20:40.133Z,98112.20
2018-07-31T18:25:34.827Z,98103.77
2018-07-31T18:30:29.239Z,98112.43
2018-07-31T18:35:23.110Z,98108.91
2018-07-31T18:40:16.560Z,98117.70
2018-07-31T18:45:10.517Z,98124.77
2018-07-31T18:50:03.876Z,98131.60
2018-07-31T18:54:57.131Z,98139.61
2018-07-31T18:59:50.217Z,98141.14
2018-07-31T19:04:43.356Z,98138.50
2018-07-31T19:09:36.707Z,98130.41
2018-07-31T19:14:29.855Z,98126.70
2018-07-31T19:19:22.980Z,98103.20
2018-07-31T19:24:16.113Z,98102.73
2018-07-31T19:29:09.197Z,98096.67
2018-07-31T19:34:03.244Z,98081.48
2018-07-31T19:38:56.278Z,98118.97
2018-07-31T19:43:49.438Z,98108.02
2018-07-31T19:48:42.618Z,98103.17
2018-07-31T19:53:35.922Z,98098.78
2018-07-31T19:58:29.062Z,98110.56
2018-07-31T20:03:22.234Z,98100.16
2018-07-31T20:08:15.647Z,98112.87
2018-07-31T20:13:08.706Z,98123.45
2018-07-31T20:18:01.746Z,98113.73
2018-07-31T20:22:54.742Z,98114.36
2018-07-31T20:27:48.558Z,98116.06
2018-07-31T20:32:42.090Z,98110.66
2018-07-31T20:37:35.130Z,98103.39
2018-07-31T20:42:28.158Z,98121.25
2018-07-31T20:47:21.750Z,98124.87
2018-07-31T20:52:14.719Z,98118.41
2018-07-31T20:57:07.706Z,98135.86
2018-07-31T21:02:00.807Z,98122.94
2018-07-31T21:06:54.276Z,98124.38
2018-07-31T21:11:47.674Z,98125.03
2018-07-31T21:16:41.743Z,98115.11
2018-07-31T21:21:34.808Z,98116.16
2018-07-31T21:26:27.950Z,98121.31
2018-07-31T21:31:21.073Z,98121.70
2018-07-31T21:36:14.261Z,98101.93
2018-07-31T21:41:07.460Z,98092.41
2018-07-31T21:46:00.755Z,98084.48
2018-07-31T21:50:53.730Z,98084.62
2018-07-31T21:55:46.791Z,98080.28
2018-07-31T22:00:45.328Z,98072.87
2018-07-31T22:05:38.266Z,98093.67
2018-07-31T22:10:31.287Z,98075.11
2018-07-31T22:15:24.219Z,98093.77
2018-07-31T22:20:17.256Z,98067.73
2018-07-31T22:25:10.239Z,98060.23
2018-07-31T22:30:03.298Z,98068.02
2018-07-31T22:34:56.395Z,98066.05
2018-07-31T22:39:49.448Z,98068.58
2018-07-31T22:44:42.488Z,98060.58
2018-07-31T22:49:35.492Z,98059.38
2018-07-31T22:54:28.634Z,98066.00
2018-07-31T22:59:21.600Z,98058.72
2018-07-31T23:04:14.585Z,98072.80
2018-07-31T23:09:09.076Z,98076.42
2018-07-31T23:14:02.013Z,98066.56
2018-07-31T23:18:55.147Z,98073.95
2018-07-31T23:23:48.132Z,98054.08
2018-07-31T23:28:41.186Z,98063.30
2018-07-31T23:33:34.201Z,98053.11
2018-07-31T23:38:31.027Z,98053.36
2018-07-31T23:43:24.929Z,98051.91
2018-07-31T23:48:17.960Z,98051.36
2018-07-31T23:53:10.850Z,98063.95
2018-07-31T23:58:03.912Z,98053.28
